Juliana Airport, Saint Maartin

7:04 PM AST on July 24, 2016 (GMT -0400)
Island 92 | | Change Station

Elev 20 ft 18.03 °N, 63.09 °W | Updated 31 seconds ago

Mostly Cloudy
Mostly Cloudy
81.5 °F
Feels Like 86 °F
N
4.2
Wind Variable Wind from SSW

Today
High -- | Low -- °F
--% Chance of Precip.
Yesterday
High -- | Low -- °F
Precip. -- in
Pressure 30.01 in
Visibility 6.2 miles
Clouds Mostly Cloudy 1600 ft
Heat Index 86 °F
Dew Point 72 °F
Humidity 72%
Rainfall 0.27 in
Snow Depth Not available.
5:48 AM 6:49 PM
Waning Gibbous, 72% visible
METAR TNCM 242200Z VRB07KT 9999 VCSH BKN016TCU 26/23 Q1016 A3000 RERA TEMPO SHRA RMK JP TO SE, S, W
Pressure 30.01 in
Visibility 6.2 miles
Clouds Mostly Cloudy 1600 ft
Heat Index 86 °F
Dew Point 72 °F
Humidity 72%
Rainfall 0.27 in
Snow Depth Not available.
5:48 AM 6:49 PM
Waning Gibbous, 72% visible
METAR TNCM 242200Z VRB07KT 9999 VCSH BKN016TCU 26/23 Q1016 A3000 RERA TEMPO SHRA RMK JP TO SE, S, W

10-Day Weather Forecast

No radar image for this location.
×

Almanac

Astronomy

Jul. 24, 2016 Rise Set
Actual Time
Civil Twilight
Nautical Twilight
Astronomical Twilight
Moon
Length of Visible Light
Length of Day
Tomorrow will be .
, % of the Moon is Illuminated

Today's Extremes

Country Highs Country Lows

Community

WunderPhotos

Upload Photos

1,927,204 photos uploaded!

WunderBlog® & News

Nearby

Air Quality

  Air Quality AQ Index Pollutant
Not available.

Snow Depth

Station Depth Elevation

Earthquake Activity

City Distance Mag. Time & Date
Minimum magnitude displayed is 2.5.

Coastal Water Temperatures

Place Temperature

Stations

Nearby Weather Stations

Station Location Temp. Windchill Dew Point Humidity Wind Precip. Elev Updated Type